Independent, Nebraska
Current Conditions -  °F | °C
As of 5:53 AM on Sunday 23 Nov 2014 (Local Time) from KODX Reporting Station
Clear Clear  
Wind Chill:   Ceiling: Unl
Heat Index:   Visibility: 10mi
Dew Point:   Wind: 21mph
Humidity: 68%   Direction: 340°NNW
Pressure: 29.52"   Gusts: 26mph
Location:  41.4844°N, 98.8112°W
Report Text: KODX 231153Z AUTO 34018G23KT 10SM CLR 07/01 A2952 RMK AO2 SLP003 T00670011 10072 20006 53031
Loading
Personal Weather Stations






























Interactive Weather Map New forecast layout! Learn more

10-Day Weather Forecast

Advertisements
Track Severe Weather on mobile